Terminal Aerodrome Forecast
Issued by NWS Bismarck, ND

Home | Current Version | Previous Version | Graphics & Text | Print | Product List | Glossary On
Versions: 1 2 3 4 5 6 7 8 9 10 11 12 13 14 15 16 17 18 19 20 21
092
FTUS43 KBIS 231552 AAC
TAFBIS
TAF AMD
KBIS 231552Z 2316/2412 12009KT P6SM SCT100
     FM231700 12011KT P6SM FEW040 BKN090
     FM232100 15012KT P6SM VCTS SCT045CB BKN130
     FM240100 13010KT P6SM FEW250=

USA.gov is the U.S. government's official web portal to all federal, state and local government web resources and services.